Time;durP1;ratioP1;P1;durP2;ratioP2;P2;SDS_P1;SDS_P2;PMS_P1;PMS_P2;Temp;Humidity;BMP_temperature;BMP_pressure;BME280_temperature;BME280_humidity;BME280_pressure;Samples;Min_cycle;Max_cycle;Signal;HPM_P1;HPM_P2
2022/10/22 00:00:23;;;;;;;23.63;20.53;;;15.30;99.90;;;;;;5073692;28;20460;-49
2022/10/22 00:02:50;;;;;;;26.23;21.43;;;15.10;99.90;;;;;;5092012;28;20457;-49
2022/10/22 00:05:17;;;;;;;24.90;22.20;;;15.10;99.90;;;;;;5092197;28;20521;-49
2022/10/22 00:07:43;;;;;;;25.97;22.77;;;15.30;99.90;;;;;;5092223;28;20437;-50
2022/10/22 00:10:10;;;;;;;28.97;23.10;;;15.10;99.90;;;;;;5091727;28;20446;-50
2022/10/22 00:12:37;;;;;;;28.17;23.87;;;15.30;99.90;;;;;;5091632;28;20453;-49
2022/10/22 00:15:07;;;;;;;23.83;19.90;;;15.30;99.90;;;;;;5092049;28;20936;-49
2022/10/22 00:17:34;;;;;;;25.20;20.43;;;15.30;99.90;;;;;;5091867;28;20504;-49
2022/10/22 00:20:01;;;;;;;21.90;18.90;;;15.30;99.90;;;;;;5091667;28;20456;-50
2022/10/22 00:22:28;;;;;;;23.77;21.17;;;15.30;99.90;;;;;;5091947;28;20468;-50
2022/10/22 00:24:54;;;;;;;20.30;18.10;;;15.10;99.90;;;;;;5092008;28;20464;-50
2022/10/22 00:27:21;;;;;;;23.27;19.97;;;15.70;99.90;;;;;;5092047;28;20916;-50
2022/10/22 00:29:48;;;;;;;26.90;20.03;;;15.30;99.90;;;;;;5091642;28;20798;-50
2022/10/22 00:32:15;;;;;;;20.17;16.90;;;15.30;99.90;;;;;;5091626;28;20464;-50
2022/10/22 00:34:42;;;;;;;17.43;15.63;;;15.50;99.90;;;;;;5091746;28;20803;-50
2022/10/22 00:37:09;;;;;;;19.90;17.83;;;15.30;99.90;;;;;;5091991;28;20436;-49
2022/10/22 00:39:35;;;;;;;20.30;16.90;;;15.40;99.90;;;;;;5091628;28;20456;-50
2022/10/22 00:42:02;;;;;;;18.50;16.70;;;15.50;99.90;;;;;;5091656;28;20452;-50
2022/10/22 00:45:23;;;;;;;25.90;19.87;;;15.40;99.90;;;;;;5091581;28;20995;-49
2022/10/22 00:47:56;;;;;;;21.93;19.23;;;15.20;99.90;;;;;;5026952;28;20962;-49
2022/10/22 00:50:27;;;;;;;24.53;19.70;;;14.70;99.90;;;;;;5079223;28;20981;-50
2022/10/22 00:52:54;;;;;;;23.87;19.60;;;15.10;99.90;;;;;;5091837;28;20842;-49
2022/10/22 00:55:23;;;;;;;23.57;18.40;;;15.30;99.90;;;;;;5092000;28;20801;-50
2022/10/22 00:57:49;;;;;;;20.80;18.13;;;15.00;99.90;;;;;;5091848;28;20471;-50
2022/10/22 01:00:17;;;;;;;23.30;19.90;;;15.20;99.90;;;;;;5091433;28;20497;-50
2022/10/22 01:02:44;;;;;;;19.13;17.23;;;15.10;99.90;;;;;;5091501;28;20984;-49
2022/10/22 01:05:12;;;;;;;19.43;16.70;;;15.40;99.90;;;;;;5091548;28;20476;-49
2022/10/22 01:07:43;;;;;;;20.37;17.80;;;15.30;99.90;;;;;;5091772;28;20429;-49
2022/10/22 01:10:18;;;;;;;24.73;19.30;;;15.10;99.90;;;;;;5091318;28;20433;-49
2022/10/22 01:12:51;;;;;;;19.00;16.80;;;15.10;99.90;;;;;;5091431;28;20452;-49
2022/10/22 01:15:24;;;;;;;19.60;17.60;;;15.10;99.90;;;;;;5072993;28;20433;-50
2022/10/22 01:17:59;;;;;;;17.80;16.03;;;15.20;99.90;;;;;;5091174;28;20432;-50
2022/10/22 01:20:48;;;;;;;21.43;17.50;;;15.50;99.90;;;;;;5091185;28;20442;-49
2022/10/22 01:23:44;;;;;;;19.03;17.00;;;15.20;99.90;;;;;;5094021;28;20448;-50
2022/10/22 01:26:18;;;;;;;20.27;17.90;;;15.30;99.90;;;;;;5095253;28;20776;-50
2022/10/22 01:28:58;;;;;;;21.03;18.27;;;15.30;99.90;;;;;;5094872;28;20425;-50
2022/10/22 01:31:28;;;;;;;22.23;18.93;;;15.20;99.90;;;;;;5094759;28;20451;-49
2022/10/22 01:33:55;;;;;;;17.97;16.07;;;15.10;99.90;;;;;;5095293;28;20429;-49
2022/10/22 01:36:22;;;;;;;19.50;16.67;;;15.50;99.90;;;;;;5095028;28;20439;-50
2022/10/22 01:38:50;;;;;;;20.97;18.07;;;15.30;99.90;;;;;;5094690;28;20435;-49
2022/10/22 01:41:17;;;;;;;22.83;19.97;;;15.10;99.90;;;;;;5094954;28;20473;-50
2022/10/22 01:43:44;;;;;;;20.23;17.00;;;15.20;99.90;;;;;;5094905;28;20440;-49
2022/10/22 01:46:13;;;;;;;19.70;17.43;;;15.30;99.90;;;;;;5094609;28;20491;-49
2022/10/22 01:48:56;;;;;;;19.33;17.20;;;15.40;99.90;;;;;;5094886;28;20440;-50
2022/10/22 01:51:37;;;;;;;23.93;19.93;;;15.40;99.90;;;;;;5094815;28;20445;-49
2022/10/22 01:54:11;;;;;;;25.60;19.80;;;15.40;99.90;;;;;;5094947;28;20421;-50
2022/10/22 01:56:54;;;;;;;24.83;19.90;;;15.30;99.90;;;;;;5094732;28;20447;-49
2022/10/22 01:59:33;;;;;;;26.20;19.70;;;15.00;99.90;;;;;;5094388;28;21038;-49
2022/10/22 02:02:05;;;;;;;18.73;16.87;;;15.00;99.90;;;;;;5094417;28;20499;-49
2022/10/22 02:04:35;;;;;;;26.60;20.70;;;15.50;99.90;;;;;;5094656;28;20469;-49
2022/10/22 02:07:06;;;;;;;22.17;19.47;;;14.90;99.90;;;;;;5094528;28;20440;-49
2022/10/22 02:09:35;;;;;;;22.07;19.67;;;15.20;99.90;;;;;;5094201;28;20565;-50
2022/10/22 02:12:04;;;;;;;22.70;18.67;;;15.10;99.90;;;;;;5094459;28;20449;-50
2022/10/22 02:14:32;;;;;;;20.80;17.50;;;14.80;99.90;;;;;;5094602;28;20524;-49
2022/10/22 02:17:01;;;;;;;20.13;17.23;;;14.60;99.90;;;;;;5094112;28;20753;-49
2022/10/22 02:19:35;;;;;;;21.10;16.40;;;15.20;99.90;;;;;;5094070;28;20440;-50
2022/10/22 02:22:02;;;;;;;19.80;17.57;;;14.80;99.90;;;;;;5094167;28;20464;-50
2022/10/22 02:24:29;;;;;;;27.30;19.27;;;15.30;99.90;;;;;;5094121;28;20483;-50
2022/10/22 02:27:02;;;;;;;16.23;14.60;;;15.00;99.90;;;;;;5094048;28;20432;-50
2022/10/22 02:29:35;;;;;;;23.47;19.70;;;15.00;99.90;;;;;;5093661;28;20449;-50
2022/10/22 02:32:06;;;;;;;22.87;19.20;;;15.20;99.90;;;;;;5093921;28;20445;-50
2022/10/22 02:34:33;;;;;;;20.37;18.20;;;14.90;99.90;;;;;;5093496;28;20433;-50
2022/10/22 02:37:01;;;;;;;28.47;18.40;;;15.10;99.90;;;;;;5093999;28;20433;-50
2022/10/22 02:39:30;;;;;;;23.03;19.13;;;15.00;99.90;;;;;;5093662;28;20434;-50
2022/10/22 02:41:57;;;;;;;26.67;19.17;;;15.00;99.90;;;;;;5093833;28;20452;-50
2022/10/22 02:44:24;;;;;;;19.90;16.80;;;15.00;99.90;;;;;;5093642;28;20437;-49
2022/10/22 02:46:51;;;;;;;16.37;13.77;;;15.10;99.90;;;;;;5093744;28;20440;-50
2022/10/22 02:49:19;;;;;;;23.00;17.90;;;15.10;99.90;;;;;;5093187;28;20433;-50
2022/10/22 02:51:45;;;;;;;20.53;16.77;;;14.90;99.90;;;;;;5093653;28;20460;-50
2022/10/22 02:54:12;;;;;;;22.17;16.80;;;14.80;99.90;;;;;;5093637;28;20428;-50
2022/10/22 02:56:38;;;;;;;19.13;16.33;;;14.50;99.90;;;;;;5093577;28;20430;-49
2022/10/22 02:59:05;;;;;;;24.20;17.97;;;15.20;99.90;;;;;;5093311;28;20425;-50
2022/10/22 03:01:31;;;;;;;21.70;18.50;;;15.10;99.90;;;;;;5093450;28;20464;-49
2022/10/22 03:03:58;;;;;;;17.63;14.80;;;14.80;99.90;;;;;;5093477;28;20806;-49
2022/10/22 03:06:26;;;;;;;19.10;16.60;;;14.70;99.90;;;;;;5093534;28;20477;-50
2022/10/22 03:08:53;;;;;;;23.57;16.47;;;14.70;99.90;;;;;;5093320;28;20422;-49
2022/10/22 03:11:19;;;;;;;22.80;19.00;;;15.10;99.90;;;;;;5093545;28;20463;-50
2022/10/22 03:13:46;;;;;;;21.40;19.10;;;15.20;99.90;;;;;;5093857;28;20776;-50
2022/10/22 03:16:12;;;;;;;24.50;19.63;;;14.60;99.90;;;;;;5093318;28;20431;-50
2022/10/22 03:18:39;;;;;;;24.33;19.00;;;15.00;99.90;;;;;;5093053;28;20439;-50
2022/10/22 03:21:12;;;;;;;24.77;19.03;;;15.00;99.90;;;;;;5093119;28;20443;-50
2022/10/22 03:23:42;;;;;;;23.00;18.33;;;14.80;99.90;;;;;;5093386;28;20524;-50
2022/10/22 03:26:12;;;;;;;22.57;19.30;;;15.10;99.90;;;;;;5093564;28;20476;-50
2022/10/22 03:28:40;;;;;;;21.30;17.97;;;14.80;99.90;;;;;;5092710;28;20437;-50
2022/10/22 03:31:07;;;;;;;18.10;15.60;;;14.90;99.90;;;;;;5093059;28;20433;-49
2022/10/22 03:33:33;;;;;;;23.50;19.60;;;14.60;99.90;;;;;;5093275;28;20809;-50
2022/10/22 03:36:00;;;;;;;22.30;17.93;;;15.00;99.90;;;;;;5092931;28;20448;-50
2022/10/22 03:38:27;;;;;;;24.70;19.07;;;14.80;99.90;;;;;;5092554;28;20432;-50
2022/10/22 03:40:55;;;;;;;20.80;18.27;;;14.90;99.90;;;;;;5092869;28;20476;-50
2022/10/22 03:43:22;;;;;;;18.43;15.97;;;15.30;99.90;;;;;;5092670;28;20433;-50
2022/10/22 03:45:48;;;;;;;23.53;18.40;;;14.90;99.90;;;;;;5091898;28;20480;-50
2022/10/22 03:48:15;;;;;;;23.83;19.27;;;15.20;99.90;;;;;;5092637;28;20459;-50
2022/10/22 03:50:41;;;;;;;19.40;16.77;;;15.10;99.90;;;;;;5092398;28;20435;-50
2022/10/22 03:53:09;;;;;;;23.67;18.20;;;14.70;99.90;;;;;;5092608;28;20457;-50
2022/10/22 03:55:37;;;;;;;21.13;17.10;;;15.00;99.90;;;;;;5092628;28;20960;-50
2022/10/22 03:58:05;;;;;;;20.93;17.67;;;15.10;99.90;;;;;;5092502;28;20437;-50
2022/10/22 04:00:32;;;;;;;22.80;18.50;;;14.40;99.90;;;;;;5092261;28;20438;-50
2022/10/22 04:02:58;;;;;;;21.13;16.40;;;14.80;99.90;;;;;;5092485;28;20755;-50
2022/10/22 04:05:25;;;;;;;22.77;17.83;;;14.30;99.90;;;;;;5092338;28;20464;-50
2022/10/22 04:07:52;;;;;;;18.73;16.00;;;14.80;99.90;;;;;;5092492;28;20429;-50
2022/10/22 04:10:18;;;;;;;20.23;16.70;;;14.60;99.90;;;;;;5091949;28;20429;-49
2022/10/22 04:12:47;;;;;;;24.40;17.50;;;15.10;99.90;;;;;;5092433;28;20855;-50
2022/10/22 04:15:15;;;;;;;19.67;17.23;;;15.50;99.90;;;;;;5092255;28;20429;-50
2022/10/22 04:17:42;;;;;;;19.60;17.50;;;15.40;99.90;;;;;;5092231;28;20925;-50
2022/10/22 04:20:09;;;;;;;23.37;17.90;;;15.00;99.90;;;;;;5091555;28;20921;-50
2022/10/22 04:22:36;;;;;;;21.80;17.40;;;14.90;99.90;;;;;;5092507;28;20459;-50
2022/10/22 04:25:03;;;;;;;20.03;16.43;;;14.90;99.90;;;;;;5091823;28;20469;-50
2022/10/22 04:27:30;;;;;;;18.17;16.00;;;14.70;99.90;;;;;;5091848;28;20439;-50
2022/10/22 04:29:57;;;;;;;25.27;18.97;;;14.30;99.90;;;;;;5091602;28;20515;-50
2022/10/22 04:32:25;;;;;;;26.43;18.53;;;14.70;99.90;;;;;;5091756;28;20454;-49
2022/10/22 04:34:52;;;;;;;21.87;18.00;;;14.90;99.90;;;;;;5091900;28;20452;-50
2022/10/22 04:37:19;;;;;;;22.57;17.57;;;14.30;99.90;;;;;;5092003;28;20433;-50
2022/10/22 04:39:45;;;;;;;18.17;16.20;;;14.50;99.90;;;;;;5091517;28;20442;-50
2022/10/22 04:42:12;;;;;;;21.67;17.80;;;15.10;99.90;;;;;;5091757;28;20452;-50
2022/10/22 04:44:39;;;;;;;17.90;15.70;;;14.90;99.90;;;;;;5073636;28;20540;-50
2022/10/22 04:47:05;;;;;;;18.40;15.40;;;14.70;99.90;;;;;;5091828;28;20478;-49
2022/10/22 04:49:33;;;;;;;24.63;17.13;;;15.30;99.90;;;;;;5091606;28;20433;-50
2022/10/22 04:52:00;;;;;;;22.03;16.83;;;15.10;99.90;;;;;;5091828;28;20468;-49
2022/10/22 04:54:27;;;;;;;20.03;17.80;;;15.40;99.90;;;;;;5091697;28;20415;-49
2022/10/22 04:56:53;;;;;;;21.80;17.33;;;14.90;99.90;;;;;;5092172;28;20425;-49
2022/10/22 04:59:20;;;;;;;21.03;16.73;;;14.70;99.90;;;;;;5095587;28;20432;-50
2022/10/22 05:01:46;;;;;;;18.67;16.77;;;15.30;99.90;;;;;;5095702;28;20458;-49
2022/10/22 05:04:15;;;;;;;22.43;16.60;;;15.00;99.90;;;;;;5095869;28;20443;-49
2022/10/22 05:06:44;;;;;;;20.30;17.83;;;14.90;99.90;;;;;;5095565;28;20474;-48
2022/10/22 05:09:13;;;;;;;19.30;17.20;;;15.00;99.90;;;;;;5095404;28;20440;-48
2022/10/22 05:11:44;;;;;;;21.77;17.43;;;15.40;99.90;;;;;;5095686;28;20965;-49
2022/10/22 05:14:12;;;;;;;21.80;17.00;;;15.10;99.90;;;;;;5095736;28;20523;-49
2022/10/22 05:16:39;;;;;;;19.73;17.43;;;14.80;99.90;;;;;;5095530;28;20420;-50
2022/10/22 05:19:06;;;;;;;19.63;17.20;;;14.50;99.90;;;;;;5095080;28;20436;-49
2022/10/22 05:21:33;;;;;;;22.67;17.90;;;15.20;99.90;;;;;;5077032;28;21020;-48
2022/10/22 05:24:01;;;;;;;24.87;17.87;;;14.80;99.90;;;;;;5095296;28;20921;-50
2022/10/22 05:26:28;;;;;;;23.07;17.70;;;15.30;99.90;;;;;;5095352;28;20480;-49
2022/10/22 05:28:55;;;;;;;21.97;15.90;;;14.70;99.90;;;;;;5095027;28;20428;-50
2022/10/22 05:31:21;;;;;;;24.30;19.17;;;14.80;99.90;;;;;;5095121;28;20816;-50
2022/10/22 05:33:48;;;;;;;24.53;19.60;;;14.30;99.90;;;;;;5095151;28;20434;-50
2022/10/22 05:36:17;;;;;;;25.63;19.10;;;14.60;99.90;;;;;;5095109;28;20822;-50
2022/10/22 05:38:44;;;;;;;20.60;16.90;;;14.90;99.90;;;;;;5094823;28;20796;-50
2022/10/22 05:41:14;;;;;;;22.13;17.10;;;14.60;99.90;;;;;;5095025;28;20949;-49
2022/10/22 05:43:41;;;;;;;20.63;17.13;;;14.10;99.90;;;;;;5095031;28;20429;-50
2022/10/22 05:46:09;;;;;;;16.73;14.97;;;14.10;99.90;;;;;;5094717;28;20481;-50
2022/10/22 05:48:36;;;;;;;26.30;18.93;;;14.70;99.90;;;;;;5094517;28;20431;-50
2022/10/22 05:51:04;;;;;;;21.47;17.67;;;14.50;99.90;;;;;;5094852;28;20433;-49
2022/10/22 05:53:31;;;;;;;23.43;17.57;;;14.50;99.90;;;;;;5094773;28;20531;-49
2022/10/22 05:56:01;;;;;;;21.07;17.10;;;14.70;99.90;;;;;;5094587;28;20444;-49
2022/10/22 05:58:29;;;;;;;28.43;19.30;;;15.10;99.90;;;;;;5094452;28;20794;-49
2022/10/22 06:01:01;;;;;;;27.70;18.40;;;14.70;99.90;;;;;;5094549;28;20448;-50
2022/10/22 06:03:28;;;;;;;23.73;18.87;;;14.20;99.90;;;;;;5094632;28;20421;-49
2022/10/22 06:05:55;;;;;;;25.73;19.30;;;14.80;99.90;;;;;;5094453;28;20472;-49
2022/10/22 06:08:22;;;;;;;20.20;18.10;;;14.60;99.90;;;;;;5093925;28;20429;-50
2022/10/22 06:10:48;;;;;;;23.63;17.13;;;14.50;99.90;;;;;;5094493;28;20440;-49
2022/10/22 06:13:15;;;;;;;19.40;16.33;;;14.40;99.90;;;;;;5094322;28;20430;-49
2022/10/22 06:15:43;;;;;;;20.37;18.17;;;14.50;99.90;;;;;;5094359;28;20441;-49
2022/10/22 06:18:11;;;;;;;21.20;16.60;;;14.80;99.90;;;;;;5094246;28;20434;-50
2022/10/22 06:20:37;;;;;;;21.10;17.10;;;14.30;99.90;;;;;;5093923;28;20528;-49
2022/10/22 06:23:04;;;;;;;22.33;17.37;;;14.60;99.90;;;;;;5093912;28;20475;-49
2022/10/22 06:25:30;;;;;;;26.50;18.43;;;14.00;99.90;;;;;;5093815;28;20436;-50
2022/10/22 06:27:57;;;;;;;22.77;17.87;;;14.60;99.90;;;;;;5094157;28;20437;-49
2022/10/22 06:30:23;;;;;;;25.43;20.20;;;14.90;99.90;;;;;;5093675;28;20448;-49
2022/10/22 06:32:51;;;;;;;27.13;20.33;;;14.60;99.90;;;;;;5093888;28;20476;-49
2022/10/22 06:35:18;;;;;;;22.83;19.20;;;15.10;99.90;;;;;;5093870;28;20427;-49
2022/10/22 06:37:46;;;;;;;26.17;18.80;;;14.80;99.90;;;;;;5093913;28;20431;-49
2022/10/22 06:40:13;;;;;;;25.33;20.33;;;14.70;99.90;;;;;;5093451;28;20495;-50
2022/10/22 06:42:39;;;;;;;19.63;16.63;;;14.70;99.90;;;;;;5093668;28;20452;-50
2022/10/22 06:45:08;;;;;;;17.67;15.80;;;14.80;99.90;;;;;;5093818;28;20521;-50
2022/10/22 06:47:34;;;;;;;19.73;17.60;;;15.00;99.90;;;;;;5093661;28;20484;-49
2022/10/22 06:50:02;;;;;;;22.70;19.53;;;14.90;99.90;;;;;;5093327;28;20439;-49
2022/10/22 06:52:29;;;;;;;21.40;17.23;;;14.70;99.90;;;;;;5093385;28;20465;-50
2022/10/22 06:54:55;;;;;;;22.37;16.57;;;14.80;99.90;;;;;;5093477;28;20449;-50
2022/10/22 06:57:22;;;;;;;25.20;19.03;;;15.00;99.90;;;;;;5093431;28;20440;-50
2022/10/22 06:59:49;;;;;;;21.23;18.90;;;15.10;99.90;;;;;;5093178;28;20425;-50
2022/10/22 07:02:15;;;;;;;21.43;16.53;;;14.40;99.90;;;;;;5093308;28;20465;-50
2022/10/22 07:04:42;;;;;;;20.13;16.47;;;15.10;99.90;;;;;;5093181;28;20439;-49
2022/10/22 07:07:10;;;;;;;16.93;15.13;;;15.10;99.90;;;;;;5093201;28;20903;-49
2022/10/22 07:09:38;;;;;;;25.10;17.53;;;15.60;99.90;;;;;;5092637;28;20434;-50
2022/10/22 07:12:05;;;;;;;25.80;15.60;;;15.10;99.90;;;;;;5092949;28;20555;-49
2022/10/22 07:14:31;;;;;;;21.40;19.10;;;15.10;99.90;;;;;;5093153;28;20429;-50
2022/10/22 07:16:58;;;;;;;20.67;17.27;;;15.40;99.90;;;;;;5092974;28;20955;-49
2022/10/22 07:19:24;;;;;;;21.20;18.37;;;15.40;99.90;;;;;;5092874;28;20837;-49
2022/10/22 07:21:51;;;;;;;23.23;19.00;;;15.30;99.90;;;;;;5093018;28;20460;-49
2022/10/22 07:24:19;;;;;;;21.13;17.73;;;15.30;99.90;;;;;;5092756;28;20436;-49
2022/10/22 07:26:46;;;;;;;21.67;18.37;;;15.00;99.90;;;;;;5092773;28;20478;-50
2022/10/22 07:29:14;;;;;;;23.33;18.20;;;15.40;99.90;;;;;;5092716;28;20437;-50
2022/10/22 07:31:40;;;;;;;20.40;18.20;;;15.50;99.90;;;;;;5093085;28;20456;-49
2022/10/22 07:34:07;;;;;;;21.00;18.80;;;15.30;99.90;;;;;;5092562;28;20474;-50
2022/10/22 07:36:34;;;;;;;21.37;19.07;;;15.40;99.90;;;;;;5074146;28;20446;-50
2022/10/22 07:39:01;;;;;;;19.40;17.30;;;15.70;99.90;;;;;;5092056;28;20441;-49
2022/10/22 07:41:30;;;;;;;26.97;20.57;;;15.40;99.90;;;;;;5092492;28;20463;-50
2022/10/22 07:43:57;;;;;;;23.00;19.10;;;15.10;99.90;;;;;;5092301;28;20436;-49
2022/10/22 07:46:24;;;;;;;22.40;18.90;;;15.40;99.90;;;;;;5092026;28;20468;-49
2022/10/22 07:48:51;;;;;;;23.07;18.57;;;15.80;99.90;;;;;;5092239;28;20819;-49
2022/10/22 07:51:18;;;;;;;22.00;19.57;;;15.10;99.90;;;;;;5092385;28;20453;-50
2022/10/22 07:53:45;;;;;;;25.13;19.00;;;15.40;99.90;;;;;;5092111;28;21023;-50
2022/10/22 07:56:12;;;;;;;19.97;17.87;;;16.00;99.90;;;;;;5092308;28;20435;-50
2022/10/22 07:58:40;;;;;;;21.93;17.00;;;15.80;99.90;;;;;;5091735;28;20495;-50
2022/10/22 08:01:07;;;;;;;24.30;18.20;;;15.60;99.90;;;;;;5091966;28;20442;-50
2022/10/22 08:03:34;;;;;;;18.37;16.50;;;15.60;99.90;;;;;;5092170;28;20433;-49
2022/10/22 08:06:01;;;;;;;20.50;16.83;;;15.50;99.90;;;;;;5092337;28;20955;-50
2022/10/22 08:08:29;;;;;;;19.63;17.60;;;15.90;99.90;;;;;;5092075;28;20429;-50
2022/10/22 08:10:57;;;;;;;17.13;15.43;;;16.20;99.90;;;;;;5092028;28;20447;-50
2022/10/22 08:13:25;;;;;;;22.87;18.90;;;16.20;99.90;;;;;;5092114;28;20463;-49
2022/10/22 08:15:53;;;;;;;20.73;17.03;;;16.10;99.90;;;;;;5091650;28;20438;-50
2022/10/22 08:18:19;;;;;;;18.90;17.00;;;16.00;99.90;;;;;;5091929;28;20433;-51
2022/10/22 08:20:46;;;;;;;16.90;15.27;;;16.10;99.90;;;;;;5073486;28;20449;-50
2022/10/22 08:23:12;;;;;;;17.77;15.83;;;16.60;99.90;;;;;;5091911;28;20771;-50
2022/10/22 08:25:39;;;;;;;19.40;15.90;;;16.10;99.90;;;;;;5073258;28;20960;-49
2022/10/22 08:28:06;;;;;;;15.67;14.07;;;16.20;99.90;;;;;;5091791;28;20473;-50
2022/10/22 08:30:32;;;;;;;16.10;14.47;;;15.70;99.90;;;;;;5091759;28;20427;-50
2022/10/22 08:33:00;;;;;;;17.73;16.03;;;15.60;99.90;;;;;;5091169;28;20835;-51
2022/10/22 08:35:27;;;;;;;15.43;14.03;;;16.60;99.90;;;;;;5091422;28;20435;-50
2022/10/22 08:37:53;;;;;;;17.33;15.17;;;16.20;99.90;;;;;;5091266;28;20940;-49
2022/10/22 08:40:24;;;;;;;19.20;16.73;;;16.00;99.90;;;;;;5091664;28;20440;-50
2022/10/22 08:43:12;;;;;;;18.57;16.53;;;15.70;99.90;;;;;;5091473;28;20958;-49
2022/10/22 08:45:47;;;;;;;16.53;14.80;;;16.20;99.90;;;;;;5091466;28;20476;-49
2022/10/22 08:48:28;;;;;;;18.63;15.60;;;16.20;99.90;;;;;;5091726;28;20480;-49
2022/10/22 08:50:57;;;;;;;14.80;13.33;;;16.10;99.90;;;;;;5091605;28;20431;-51
2022/10/22 08:53:31;;;;;;;18.30;15.27;;;16.10;99.90;;;;;;5091513;28;20450;-50
2022/10/22 08:55:58;;;;;;;14.60;13.07;;;16.60;99.90;;;;;;5091454;28;20437;-49
2022/10/22 08:58:33;;;;;;;19.53;15.70;;;16.30;99.90;;;;;;5090974;28;20939;-49
2022/10/22 09:01:01;;;;;;;15.97;14.30;;;16.30;99.90;;;;;;5091262;28;20429;-49
2022/10/22 09:03:36;;;;;;;23.17;16.07;;;16.30;99.90;;;;;;5091132;28;20441;-50
2022/10/22 09:06:09;;;;;;;17.07;14.40;;;16.40;99.90;;;;;;5072775;28;20457;-49
2022/10/22 09:08:38;;;;;;;16.50;14.80;;;16.30;99.90;;;;;;5091076;28;20452;-51
2022/10/22 09:11:13;;;;;;;15.43;13.90;;;16.60;99.90;;;;;;5090882;28;20440;-49
2022/10/22 09:13:41;;;;;;;17.00;13.90;;;16.50;99.90;;;;;;5090900;28;20457;-50
2022/10/22 09:16:15;;;;;;;17.73;15.10;;;16.70;99.90;;;;;;5091017;28;20440;-50
2022/10/22 09:18:53;;;;;;;15.40;13.70;;;16.60;99.90;;;;;;5090992;28;20840;-50
2022/10/22 09:21:28;;;;;;;15.43;13.93;;;16.60;99.90;;;;;;5091065;28;20478;-49
2022/10/22 09:24:03;;;;;;;16.73;15.00;;;17.00;99.90;;;;;;5091188;28;20433;-51
2022/10/22 09:26:32;;;;;;;14.13;11.90;;;16.50;99.90;;;;;;5091428;28;20499;-50
2022/10/22 09:29:00;;;;;;;16.80;14.60;;;16.70;99.90;;;;;;5090919;28;20434;-50
2022/10/22 09:31:31;;;;;;;17.03;13.93;;;16.70;99.90;;;;;;5090732;28;20843;-50
2022/10/22 09:34:06;;;;;;;16.77;14.47;;;17.00;99.90;;;;;;5090788;28;20492;-49
2022/10/22 09:36:33;;;;;;;17.50;14.47;;;16.80;99.90;;;;;;5091148;28;20528;-49
2022/10/22 09:39:00;;;;;;;15.73;14.00;;;16.70;99.90;;;;;;5090790;28;20526;-50
2022/10/22 09:41:29;;;;;;;15.80;14.17;;;16.50;99.90;;;;;;5090977;28;20815;-50
2022/10/22 09:43:57;;;;;;;17.07;15.20;;;17.10;99.90;;;;;;5091039;28;20500;-50
2022/10/22 09:46:27;;;;;;;14.77;13.30;;;17.00;99.90;;;;;;5094234;28;20434;-51
2022/10/22 09:49:03;;;;;;;15.20;13.47;;;17.10;99.90;;;;;;5094310;28;20769;-50
2022/10/22 09:51:41;;;;;;;15.07;13.57;;;17.40;99.90;;;;;;5094284;28;20456;-50
2022/10/22 09:54:16;;;;;;;17.40;13.87;;;17.00;99.90;;;;;;5094246;28;20435;-50
2022/10/22 09:56:50;;;;;;;16.57;14.53;;;17.40;99.90;;;;;;5094339;28;20446;-50
2022/10/22 09:59:24;;;;;;;14.83;13.43;;;17.50;99.90;;;;;;5093871;28;20447;-50
2022/10/22 10:01:58;;;;;;;16.27;13.20;;;17.60;99.90;;;;;;5094187;28;20982;-50
2022/10/22 10:04:25;;;;;;;17.90;14.93;;;17.60;99.90;;;;;;5093749;28;20431;-49
2022/10/22 10:06:55;;;;;;;16.20;14.23;;;18.00;99.90;;;;;;5094081;28;20468;-49
2022/10/22 10:09:24;;;;;;;17.67;14.80;;;17.70;99.90;;;;;;5093828;28;20806;-50
2022/10/22 10:11:57;;;;;;;19.33;14.43;;;17.50;99.90;;;;;;5094054;28;20455;-51
2022/10/22 10:14:37;;;;;;;17.23;14.30;;;17.50;99.90;;;;;;5094093;28;20443;-49
2022/10/22 10:17:13;;;;;;;16.60;14.97;;;17.50;99.90;;;;;;5094072;28;20535;-49
2022/10/22 10:19:59;;;;;;;16.53;13.50;;;17.80;99.90;;;;;;5093312;28;20436;-51
2022/10/22 10:22:41;;;;;;;14.03;12.67;;;17.40;99.90;;;;;;5126651;22;20501;-50
2022/10/22 10:25:25;;;;;;;18.40;15.00;;;17.90;99.90;;;;;;5114503;28;20442;-51
2022/10/22 10:27:58;;;;;;;16.93;13.97;;;17.70;99.90;;;;;;5113738;28;20486;-51
2022/10/22 10:30:25;;;;;;;20.50;15.53;;;17.70;99.90;;;;;;5113802;28;20430;-51
2022/10/22 10:33:05;;;;;;;17.23;15.20;;;17.70;99.90;;;;;;5113799;28;20539;-60
2022/10/22 10:35:44;;;;;;;18.90;15.13;;;17.70;99.90;;;;;;5113883;28;20428;-49
2022/10/22 10:38:26;;;;;;;16.10;14.20;;;17.70;99.90;;;;;;5113625;28;20431;-53
2022/10/22 10:40:59;;;;;;;20.07;14.63;;;17.80;99.90;;;;;;5113840;28;20437;-50
2022/10/22 10:43:35;;;;;;;14.97;13.30;;;17.80;99.90;;;;;;5112686;28;20478;-51
2022/10/22 10:46:11;;;;;;;19.57;14.63;;;17.80;99.90;;;;;;5113552;28;20430;-52
2022/10/22 10:48:48;;;;;;;15.53;13.53;;;17.80;99.90;;;;;;5113306;28;20470;-51
2022/10/22 10:51:31;;;;;;;14.90;13.40;;;17.60;99.90;;;;;;5113280;28;20426;-51
2022/10/22 10:54:11;;;;;;;14.20;12.70;;;17.70;99.90;;;;;;5113997;28;20430;-51
2022/10/22 10:56:41;;;;;;;18.87;16.83;;;17.70;99.90;;;;;;5111953;28;20497;-50
2022/10/22 10:59:17;;;;;;;20.23;16.63;;;17.60;99.90;;;;;;5113075;28;20434;-51
2022/10/22 11:01:59;;;;;;;18.23;15.40;;;17.90;99.90;;;;;;5113219;28;20451;-50
2022/10/22 11:04:50;;;;;;;17.37;15.47;;;17.60;99.90;;;;;;5112867;28;20439;-50
2022/10/22 11:07:23;;;;;;;23.60;15.47;;;17.90;99.90;;;;;;5112880;28;20856;-49
2022/10/22 11:09:55;;;;;;;16.80;15.20;;;18.10;99.90;;;;;;5112366;28;20428;-50
2022/10/22 11:12:27;;;;;;;17.43;15.67;;;18.00;99.90;;;;;;5112988;28;20447;-50
2022/10/22 11:15:00;;;;;;;22.10;15.77;;;18.30;99.90;;;;;;5112611;28;20442;-50
2022/10/22 11:17:35;;;;;;;18.83;16.73;;;18.20;99.90;;;;;;5112614;28;20805;-49
2022/10/22 11:20:07;;;;;;;25.93;14.43;;;18.20;99.90;;;;;;5112493;28;20940;-50
2022/10/22 11:22:39;;;;;;;23.73;16.57;;;18.30;99.90;;;;;;5112512;28;20466;-49
2022/10/22 11:25:17;;;;;;;19.27;17.37;;;18.50;99.90;;;;;;5112838;28;20434;-51
2022/10/22 11:27:48;;;;;;;17.87;15.27;;;18.20;99.90;;;;;;5112643;28;20479;-51
2022/10/22 11:30:16;;;;;;;17.23;15.00;;;18.20;99.90;;;;;;5112310;28;20789;-51
2022/10/22 11:32:47;;;;;;;20.77;17.20;;;18.30;99.90;;;;;;5111827;28;20455;-51
2022/10/22 11:35:17;;;;;;;23.43;18.50;;;18.30;99.90;;;;;;5112274;28;20432;-50
2022/10/22 11:37:47;;;;;;;22.03;19.23;;;18.50;99.90;;;;;;5112225;28;20802;-49
2022/10/22 11:40:18;;;;;;;30.37;20.73;;;18.30;99.90;;;;;;5111933;28;20466;-50
2022/10/22 11:42:47;;;;;;;19.53;17.23;;;18.30;99.90;;;;;;5112129;28;20455;-50
2022/10/22 11:45:30;;;;;;;22.97;17.73;;;18.10;99.90;;;;;;5112132;28;20437;-49
2022/10/22 11:48:05;;;;;;;22.83;20.60;;;18.10;99.90;;;;;;5112085;28;20468;-50
2022/10/22 11:50:46;;;;;;;22.60;20.20;;;18.30;99.90;;;;;;5111727;28;20460;-50
2022/10/22 11:53:30;;;;;;;23.23;21.07;;;18.20;99.90;;;;;;5112305;28;20863;-51
2022/10/22 11:55:58;;;;;;;21.83;18.50;;;18.40;99.90;;;;;;5112618;28;20431;-51
2022/10/22 11:58:31;;;;;;;22.33;20.20;;;18.10;99.90;;;;;;5112601;28;20803;-50
2022/10/22 12:01:18;;;;;;;21.93;18.50;;;18.20;99.90;;;;;;5111912;28;20526;-51
2022/10/22 12:03:49;;;;;;;23.23;20.77;;;18.50;99.90;;;;;;5110275;28;20582;-51
2022/10/22 12:06:22;;;;;;;23.10;20.80;;;17.80;99.90;;;;;;5111662;28;20430;-50
2022/10/22 12:08:59;;;;;;;20.40;18.33;;;18.50;99.90;;;;;;5111228;28;20485;-49
2022/10/22 12:11:28;;;;;;;21.37;17.87;;;18.30;99.90;;;;;;5111852;28;20432;-49
2022/10/22 12:14:18;;;;;;;19.03;16.73;;;18.10;99.90;;;;;;5111834;28;20789;-50
2022/10/22 12:16:47;;;;;;;18.30;16.57;;;18.00;99.90;;;;;;5111737;28;20828;-50
2022/10/22 12:19:16;;;;;;;21.60;16.77;;;17.90;99.90;;;;;;5111585;28;20964;-50
2022/10/22 12:21:47;;;;;;;22.97;15.37;;;18.00;99.90;;;;;;5110996;28;20459;-50
2022/10/22 12:24:19;;;;;;;15.90;14.23;;;17.80;99.90;;;;;;5111849;28;20432;-51
2022/10/22 12:26:48;;;;;;;15.60;14.10;;;17.90;99.90;;;;;;5110685;28;20455;-55
2022/10/22 12:29:16;;;;;;;16.37;14.50;;;18.30;99.90;;;;;;5111194;28;20482;-50
2022/10/22 12:31:45;;;;;;;20.60;14.80;;;18.30;99.90;;;;;;5110719;28;20530;-49
2022/10/22 12:34:17;;;;;;;18.67;14.57;;;18.20;99.90;;;;;;5111160;28;20449;-50
2022/10/22 12:36:46;;;;;;;14.03;12.53;;;17.80;99.90;;;;;;5111503;28;20436;-49
2022/10/22 12:39:16;;;;;;;18.37;13.90;;;18.30;99.90;;;;;;5111505;28;20840;-50
2022/10/22 12:41:44;;;;;;;14.33;12.90;;;17.80;99.90;;;;;;5111268;28;20443;-49